Map

Track Data

SID SEASON NUMBER BASIN SUBBASIN NAME ISO_TIME NATURE LAT LON WMO_WIND WMO_PRES WMO_AGENCY TRACK_TYPE DIST2LAND LANDFALL IFLAG USA_AGENCY USA_ATCF_ID USA_LAT USA_LON USA_RECORD USA_STATUS USA_WIND USA_PRES USA_SSHS USA_R34_NE USA_R34_SE USA_R34_SW USA_R34_NW USA_R50_NE USA_R50_SE USA_R50_SW USA_R50_NW USA_R64_NE USA_R64_SE USA_R64_SW USA_R64_NW USA_POCI USA_ROCI USA_RMW USA_EYE TOKYO_LAT TOKYO_LON TOKYO_GRADE TOKYO_WIND TOKYO_PRES TOKYO_R50_DIR TOKYO_R50_LONG TOKYO_R50_SHORT TOKYO_R30_DIR TOKYO_R30_LONG TOKYO_R30_SHORT TOKYO_LAND CMA_LAT CMA_LON CMA_CAT CMA_WIND CMA_PRES HKO_LAT HKO_LON HKO_CAT HKO_WIND HKO_PRES NEWDELHI_LAT NEWDELHI_LON NEWDELHI_GRADE NEWDELHI_WIND NEWDELHI_PRES NEWDELHI_CI NEWDELHI_DP NEWDELHI_POCI REUNION_LAT REUNION_LON REUNION_TYPE REUNION_WIND REUNION_PRES REUNION_TNUM REUNION_CI REUNION_RMW REUNION_R34_NE REUNION_R34_SE REUNION_R34_SW REUNION_R34_NW REUNION_R50_NE REUNION_R50_SE REUNION_R50_SW REUNION_R50_NW REUNION_R64_NE REUNION_R64_SE REUNION_R64_SW REUNION_R64_NW BOM_LAT BOM_LON BOM_TYPE BOM_WIND BOM_PRES BOM_TNUM BOM_CI BOM_RMW BOM_R34_NE BOM_R34_SE BOM_R34_SW BOM_R34_NW BOM_R50_NE BOM_R50_SE BOM_R50_SW BOM_R50_NW BOM_R64_NE BOM_R64_SE BOM_R64_SW BOM_R64_NW BOM_ROCI BOM_POCI BOM_EYE BOM_POS_METHOD BOM_PRES_METHOD NADI_LAT NADI_LON NADI_CAT NADI_WIND NADI_PRES WELLINGTON_LAT WELLINGTON_LON WELLINGTON_WIND WELLINGTON_PRES DS824_LAT DS824_LON DS824_STAGE DS824_WIND DS824_PRES TD9636_LAT TD9636_LON TD9636_STAGE TD9636_WIND TD9636_PRES TD9635_LAT TD9635_LON TD9635_WIND TD9635_PRES TD9635_ROCI NEUMANN_LAT NEUMANN_LON NEUMANN_CLASS NEUMANN_WIND NEUMANN_PRES MLC_LAT MLC_LON MLC_CLASS MLC_WIND MLC_PRES USA_GUST BOM_GUST BOM_GUST_PER REUNION_GUST REUNION_GUST_PER USA_SEAHGT USA_SEARAD_NE USA_SEARAD_SE USA_SEARAD_SW USA_SEARAD_NW STORM_SPEED STORM_DIR
1916258N20304 1916 47 NA NA NOT_NAMED 1916-09-13 12:00:00 TS 20.5000 -56.0000 30 hurdat_atl main 1033 974 O_____________ hurdat_atl AL101916 20.5000 -56.0000 TD 30 -1 11 281
1916258N20304 1916 47 NA NA NOT_NAMED 1916-09-13 15:00:00 TS 20.6104 -56.5998 main 974 916 P_____________ AL101916 20.6104 -56.5998 TD 30 -1 11 280
1916258N20304 1916 47 NA NA NOT_NAMED 1916-09-13 18:00:00 TS 20.7000 -57.2000 30 hurdat_atl main 916 859 O_____________ hurdat_atl AL101916 20.7000 -57.2000 TD 30 -1 11 277
1916258N20304 1916 47 NA NA NOT_NAMED 1916-09-13 21:00:00 TS 20.7573 -57.8001 main 859 800 P_____________ AL101916 20.7573 -57.8001 TD 30 -1 11 275
1916258N20304 1916 47 NA NA NOT_NAMED 1916-09-14 00:00:00 TS 20.8000 -58.4000 30 hurdat_atl main 800 741 O_____________ hurdat_atl AL101916 20.8000 -58.4000 TD 30 -1 11 275
1916258N20304 1916 47 NA NA NOT_NAMED 1916-09-14 03:00:00 TS 20.8499 -59.0075 main 741 687 P_____________ AL101916 20.8499 -59.0075 TD 32 -1 11 275
1916258N20304 1916 47 NA NA NOT_NAMED 1916-09-14 06:00:00 TS 20.9000 -59.6000 35 hurdat_atl main 687 640 O_____________ hurdat_atl AL101916 20.9000 -59.6000 TS 35 0 11 275
1916258N20304 1916 47 NA NA NOT_NAMED 1916-09-14 09:00:00 TS 20.9499 -60.1725 main 630 589 P_____________ AL101916 20.9499 -60.1725 TS 35 0 10 276
1916258N20304 1916 47 NA NA NOT_NAMED 1916-09-14 12:00:00 TS 21.0000 -60.7000 35 hurdat_atl main 589 553 O_____________ hurdat_atl AL101916 21.0000 -60.7000 TS 35 0 9 276
1916258N20304 1916 47 NA NA NOT_NAMED 1916-09-14 15:00:00 TS 21.0498 -61.1650 main 544 516 P_____________ AL101916 21.0498 -61.1650 TS 35 0 8 277
1916258N20304 1916 47 NA NA NOT_NAMED 1916-09-14 18:00:00 TS 21.1000 -61.6000 35 hurdat_atl main 516 482 O_____________ hurdat_atl AL101916 21.1000 -61.6000 TS 35 0 8 277
1916258N20304 1916 47 NA NA NOT_NAMED 1916-09-14 21:00:00 TS 21.1499 -62.0500 main 474 450 P_____________ AL101916 21.1499 -62.0500 TS 35 0 8 277
1916258N20304 1916 47 NA NA NOT_NAMED 1916-09-15 00:00:00 TS 21.2000 -62.5000 35 hurdat_atl main 450 421 O_____________ hurdat_atl AL101916 21.2000 -62.5000 TS 35 0 9 276
1916258N20304 1916 47 NA NA NOT_NAMED 1916-09-15 03:00:00 TS 21.2425 -62.9726 main 414 397 P_____________ AL101916 21.2425 -62.9726 TS 37 0 8 277
1916258N20304 1916 47 NA NA NOT_NAMED 1916-09-15 06:00:00 TS 21.3000 -63.4000 40 hurdat_atl main 397 380 O_____________ hurdat_atl AL101916 21.3000 -63.4000 TS 40 0 7 280
1916258N20304 1916 47 NA NA NOT_NAMED 1916-09-15 09:00:00 TS 21.3699 -63.7600 main 384 379 P_____________ AL101916 21.3699 -63.7600 TS 40 0 6 290
1916258N20304 1916 47 NA NA NOT_NAMED 1916-09-15 12:00:00 TS 21.5000 -64.0000 40 hurdat_atl main 384 384 O_____________ hurdat_atl AL101916 21.5000 -64.0000 TS 40 0 5 316
1916258N20304 1916 47 NA NA NOT_NAMED 1916-09-15 15:00:00 TS 21.7124 -64.1100 main 400 400 P_____________ AL101916 21.7124 -64.1100 TS 40 0 5 349
1916258N20304 1916 47 NA NA NOT_NAMED 1916-09-15 18:00:00 TS 22.0000 -64.1000 40 hurdat_atl main 431 431 O_____________ hurdat_atl AL101916 22.0000 -64.1000 TS 40 0 6 6
1916258N20304 1916 47 NA NA NOT_NAMED 1916-09-15 21:00:00 TS 22.3125 -64.0374 main 466 466 P_____________ AL101916 22.3125 -64.0374 TS 40 0 7 15
1916258N20304 1916 47 NA NA NOT_NAMED 1916-09-16 00:00:00 TS 22.7000 -63.9000 40 hurdat_atl main 512 512 O_____________ hurdat_atl AL101916 22.7000 -63.9000 TS 40 0 9 19
1916258N20304 1916 47 NA NA NOT_NAMED 1916-09-16 03:00:00 TS 23.1700 -63.7224 main 571 571 P_____________ AL101916 23.1700 -63.7224 TS 40 0 11 20
1916258N20304 1916 47 NA NA NOT_NAMED 1916-09-16 06:00:00 TS 23.7000 -63.5000 40 hurdat_atl main 631 631 O_____________ hurdat_atl AL101916 23.7000 -63.5000 TS 40 0 12 22
1916258N20304 1916 47 NA NA NOT_NAMED 1916-09-16 09:00:00 TS 24.2350 -63.2574 main 690 690 P_____________ AL101916 24.2350 -63.2574 TS 40 0 12 23
1916258N20304 1916 47 NA NA NOT_NAMED 1916-09-16 12:00:00 TS 24.8000 -63.0000 40 hurdat_atl main 764 764 O_____________ hurdat_atl AL101916 24.8000 -63.0000 TS 40 0 13 22
1916258N20304 1916 47 NA NA NOT_NAMED 1916-09-16 15:00:00 TS 25.3925 -62.7498 main 837 837 P_____________ AL101916 25.3925 -62.7498 TS 40 0 13 21
1916258N20304 1916 47 NA NA NOT_NAMED 1916-09-16 18:00:00 TS 26.0000 -62.5000 40 hurdat_atl main 907 907 O_____________ hurdat_atl AL101916 26.0000 -62.5000 TS 40 0 13 21
1916258N20304 1916 47 NA NA NOT_NAMED 1916-09-16 21:00:00 TS 26.5925 -62.2497 main 980 980 P_____________ AL101916 26.5925 -62.2497 TS 42 0 13 20
1916258N20304 1916 47 NA NA NOT_NAMED 1916-09-17 00:00:00 TS 27.2000 -62.0000 45 hurdat_atl main 1050 1050 O_____________ hurdat_atl AL101916 27.2000 -62.0000 TS 45 0 13 19
1916258N20304 1916 47 NA NA NOT_NAMED 1916-09-17 03:00:00 TS 27.8500 -61.7498 main 1123 1123 P_____________ AL101916 27.8500 -61.7498 TS 47 0 14 19
1916258N20304 1916 47 NA NA NOT_NAMED 1916-09-17 06:00:00 TS 28.5000 -61.5000 50 hurdat_atl main 1203 1203 O_____________ hurdat_atl AL101916 28.5000 -61.5000 TS 50 0 13 18
1916258N20304 1916 47 NA NA NOT_NAMED 1916-09-17 09:00:00 TS 29.1222 -61.2793 main 1272 1272 P_____________ AL101916 29.1222 -61.2793 TS 52 0 13 20
1916258N20304 1916 47 NA NA NOT_NAMED 1916-09-17 12:00:00 TS 29.7000 -61.0000 55 hurdat_atl main 1345 1345 O_____________ hurdat_atl AL101916 29.7000 -61.0000 TS 55 0 12 28
1916258N20304 1916 47 NA NA NOT_NAMED 1916-09-17 15:00:00 TS 30.2148 -60.6020 main 1411 1411 P_____________ AL101916 30.2148 -60.6020 TS 57 0 13 38
1916258N20304 1916 47 NA NA NOT_NAMED 1916-09-17 18:00:00 TS 30.7000 -60.1000 60 hurdat_atl main 1481 1458 O_____________ hurdat_atl AL101916 30.7000 -60.1000 TS 60 0 13 43
1916258N20304 1916 47 NA NA NOT_NAMED 1916-09-17 21:00:00 TS 31.1997 -59.5443 main 1461 1428 P_____________ AL101916 31.1997 -59.5443 TS 62 0 14 46
1916258N20304 1916 47 NA NA NOT_NAMED 1916-09-18 00:00:00 TS 31.7000 -58.9000 65 hurdat_atl main 1428 1402 O_____________ hurdat_atl AL101916 31.7000 -58.9000 HU 65 1 15 49
1916258N20304 1916 47 NA NA NOT_NAMED 1916-09-18 03:00:00 TS 32.1999 -58.1720 main 1402 1384 P_____________ AL101916 32.1999 -58.1720 HU 67 1 16 52
1916258N20304 1916 47 NA NA NOT_NAMED 1916-09-18 06:00:00 TS 32.7000 -57.4000 70 hurdat_atl main 1384 1367 O_____________ hurdat_atl AL101916 32.7000 -57.4000 HU 70 1 16 52
1916258N20304 1916 47 NA NA NOT_NAMED 1916-09-18 09:00:00 TS 33.2073 -56.6346 main 1372 1354 P_____________ AL101916 33.2073 -56.6346 HU 72 1 16 51
1916258N20304 1916 47 NA NA NOT_NAMED 1916-09-18 12:00:00 TS 33.7000 -55.9000 75 hurdat_atl main 1354 1326 O_____________ hurdat_atl AL101916 33.7000 -55.9000 HU 75 1 15 50
1916258N20304 1916 47 NA NA NOT_NAMED 1916-09-18 15:00:00 TS 34.1643 -55.2415 main 1322 1298 P_____________ AL101916 34.1643 -55.2415 HU 75 1 14 50
1916258N20304 1916 47 NA NA NOT_NAMED 1916-09-18 18:00:00 TS 34.6000 -54.6000 75 hurdat_atl main 1301 1283 O_____________ hurdat_atl AL101916 34.6000 -54.6000 HU 75 1 14 53
1916258N20304 1916 47 NA NA NOT_NAMED 1916-09-18 21:00:00 TS 35.0073 -53.8994 main 1287 1246 P_____________ AL101916 35.0073 -53.8994 HU 75 1 14 55
1916258N20304 1916 47 NA NA NOT_NAMED 1916-09-19 00:00:00 TS 35.4000 -53.2000 75 hurdat_atl main 1246 1202 O_____________ hurdat_atl AL101916 35.4000 -53.2000 HU 75 1 14 54
1916258N20304 1916 47 NA NA NOT_NAMED 1916-09-19 03:00:00 TS 35.7994 -52.5491 main 1202 1161 P_____________ AL101916 35.7994 -52.5491 HU 75 1 13 53
1916258N20304 1916 47 NA NA NOT_NAMED 1916-09-19 06:00:00 TS 36.2000 -51.9000 75 hurdat_atl main 1161 1123 O_____________ hurdat_atl AL101916 36.2000 -51.9000 HU 75 1 14 53
1916258N20304 1916 47 NA NA NOT_NAMED 1916-09-19 09:00:00 TS 36.6146 -51.2147 main 1124 1089 P_____________ AL101916 36.6146 -51.2147 HU 72 1 14 55
1916258N20304 1916 47 NA NA NOT_NAMED 1916-09-19 12:00:00 TS 37.0000 -50.5000 70 hurdat_atl main 1090 1069 O_____________ hurdat_atl AL101916 37.0000 -50.5000 HU 70 1 14 58
1916258N20304 1916 47 NA NA NOT_NAMED 1916-09-19 15:00:00 TS 37.3297 -49.7570 main 1071 1055 P_____________ AL101916 37.3297 -49.7570 HU 70 1 13 63
1916258N20304 1916 47 NA NA NOT_NAMED 1916-09-19 18:00:00 TS 37.6000 -49.0000 70 hurdat_atl main 1058 1051 O_____________ hurdat_atl AL101916 37.6000 -49.0000 HU 70 1 13 68
1916258N20304 1916 47 NA NA NOT_NAMED 1916-09-19 21:00:00 TS 37.8220 -48.2494 main 1060 1053 P_____________ AL101916 37.8220 -48.2494 HU 70 1 12 71
1916258N20304 1916 47 NA NA NOT_NAMED 1916-09-20 00:00:00 TS 38.0000 -47.5000 70 hurdat_atl main 1063 1063 O_____________ hurdat_atl AL101916 38.0000 -47.5000 HU 70 1 12 74
1916258N20304 1916 47 NA NA NOT_NAMED 1916-09-20 03:00:00 TS 38.1570 -46.7495 main 1074 1074 P_____________ AL101916 38.1570 -46.7495 HU 67 1 12 76
1916258N20304 1916 47 NA NA NOT_NAMED 1916-09-20 06:00:00 TS 38.3000 -46.0000 65 hurdat_atl main 1093 1093 O_____________ hurdat_atl AL101916 38.3000 -46.0000 HU 65 1 12 75
1916258N20304 1916 47 NA NA NOT_NAMED 1916-09-20 09:00:00 TS 38.4647 -45.2427 main 1111 1111 P_____________ AL101916 38.4647 -45.2427 HU 65 1 12 76
1916258N20304 1916 47 NA NA NOT_NAMED 1916-09-20 12:00:00 TS 38.6000 -44.5000 65 hurdat_atl main 1136 1136 O_____________ hurdat_atl AL101916 38.6000 -44.5000 HU 65 1 12 80
1916258N20304 1916 47 NA NA NOT_NAMED 1916-09-20 15:00:00 TS 38.6721 -43.7847 main 1163 1163 P_____________ AL101916 38.6721 -43.7847 HU 62 0 11 85
1916258N20304 1916 47 NA NA NOT_NAMED 1916-09-20 18:00:00 TS 38.7000 -43.1000 60 hurdat_atl main 1201 1201 O_____________ hurdat_atl AL101916 38.7000 -43.1000 TS 60 0 11 88
1916258N20304 1916 47 NA NA NOT_NAMED 1916-09-20 21:00:00 TS 38.7071 -42.4348 main 1241 1241 P_____________ AL101916 38.7071 -42.4348 TS 55 0 10 90
1916258N20304 1916 47 NA NA NOT_NAMED 1916-09-21 00:00:00 TS 38.7000 -41.8000 50 hurdat_atl main 1276 1276 O_____________ hurdat_atl AL101916 38.7000 -41.8000 TS 50 0 10 90
1916258N20304 1916 47 NA NA NOT_NAMED 1916-09-21 03:00:00 TS 38.6997 -41.1850 main 1311 1311 P_____________ AL101916 38.6997 -41.1850 TS 45 0 9 90
1916258N20304 1916 47 NA NA NOT_NAMED 1916-09-21 06:00:00 TS 38.7000 -40.6000 40 hurdat_atl main 1348 1348 O_____________ hurdat_atl AL101916 38.7000 -40.6000 TS 40 0 9 90
1916258N20304 1916 47 NA NA NOT_NAMED 1916-09-21 09:00:00 TS 38.6997 -40.0350 main 1385 1385 P_____________ AL101916 38.6997 -40.0350 TS 37 0 9 90
1916258N20304 1916 47 NA NA NOT_NAMED 1916-09-21 12:00:00 TS 38.7000 -39.5000 35 hurdat_atl main 1417 1417 O_____________ hurdat_atl AL101916 38.7000 -39.5000 TS 35 0 8 90
1916258N20304 1916 47 NA NA NOT_NAMED 1916-09-21 15:00:00 TS 38.6997 -38.9925 main 1448 1448 P_____________ AL101916 38.6997 -38.9925 TS 32 -1 8 90
1916258N20304 1916 47 NA NA NOT_NAMED 1916-09-21 18:00:00 TS 38.7000 -38.5000 30 hurdat_atl main 1480 1480 O_____________ hurdat_atl AL101916 38.7000 -38.5000 TD 30 -1 8 90
1916258N20304 1916 47 NA NA NOT_NAMED 1916-09-21 21:00:00 TS 38.7005 -38.0025 main 1512 1512 P_____________ AL101916 38.7005 -38.0025 TD 27 -1 8 90
1916258N20304 1916 47 NA NA NOT_NAMED 1916-09-22 00:00:00 ET 38.7000 -37.5000 25 hurdat_atl main 1545 O_____________ hurdat_atl AL101916 38.7000 -37.5000 EX 25 -4 8 90

About IBTrACS Database

This database is a web-friendly format of International Best Track Archive for Climate Stewardship (IBTrACS), a global best track data archive curated by NOAA dating back to 1842.

Updated: 2021-10-21